sensor_id;sensor_type;location;lat;lon;timestamp;P1;durP1;ratioP1;P2;durP2;ratioP2
68432;SDS011;55412;51.350;17.056;2023-05-18T00:00:25;20.40;;;2.75;;
68432;SDS011;55412;51.350;17.056;2023-05-18T00:02:52;7.22;;;1.70;;
68432;SDS011;55412;51.350;17.056;2023-05-18T00:05:17;7.93;;;1.73;;
68432;SDS011;55412;51.350;17.056;2023-05-18T00:07:44;6.53;;;1.30;;
68432;SDS011;55412;51.350;17.056;2023-05-18T00:10:11;6.40;;;1.90;;
68432;SDS011;55412;51.350;17.056;2023-05-18T00:12:37;8.55;;;1.90;;
68432;SDS011;55412;51.350;17.056;2023-05-18T00:15:03;8.18;;;2.08;;
68432;SDS011;55412;51.350;17.056;2023-05-18T00:17:30;9.40;;;2.17;;
68432;SDS011;55412;51.350;17.056;2023-05-18T00:19:56;9.38;;;2.30;;
68432;SDS011;55412;51.350;17.056;2023-05-18T00:22:22;7.50;;;1.70;;
68432;SDS011;55412;51.350;17.056;2023-05-18T00:24:50;9.32;;;1.75;;
68432;SDS011;55412;51.350;17.056;2023-05-18T00:27:17;5.55;;;1.45;;
68432;SDS011;55412;51.350;17.056;2023-05-18T00:29:43;3.70;;;1.00;;
68432;SDS011;55412;51.350;17.056;2023-05-18T00:32:09;9.68;;;1.50;;
68432;SDS011;55412;51.350;17.056;2023-05-18T00:34:35;6.85;;;1.30;;
68432;SDS011;55412;51.350;17.056;2023-05-18T00:37:01;7.70;;;1.88;;
68432;SDS011;55412;51.350;17.056;2023-05-18T00:39:27;6.97;;;1.60;;
68432;SDS011;55412;51.350;17.056;2023-05-18T00:41:53;9.20;;;1.50;;
68432;SDS011;55412;51.350;17.056;2023-05-18T00:44:19;6.20;;;1.48;;
68432;SDS011;55412;51.350;17.056;2023-05-18T00:46:45;6.05;;;1.10;;
68432;SDS011;55412;51.350;17.056;2023-05-18T00:49:11;6.85;;;1.75;;
68432;SDS011;55412;51.350;17.056;2023-05-18T00:51:37;6.53;;;1.27;;
68432;SDS011;55412;51.350;17.056;2023-05-18T00:54:03;5.85;;;1.25;;
68432;SDS011;55412;51.350;17.056;2023-05-18T00:56:30;6.75;;;1.58;;
68432;SDS011;55412;51.350;17.056;2023-05-18T00:58:59;7.57;;;1.70;;
68432;SDS011;55412;51.350;17.056;2023-05-18T01:01:30;6.00;;;0.77;;
68432;SDS011;55412;51.350;17.056;2023-05-18T01:03:58;7.37;;;1.20;;
68432;SDS011;55412;51.350;17.056;2023-05-18T01:06:26;5.35;;;0.98;;
68432;SDS011;55412;51.350;17.056;2023-05-18T01:08:57;8.75;;;1.10;;
68432;SDS011;55412;51.350;17.056;2023-05-18T01:11:26;5.18;;;1.08;;
68432;SDS011;55412;51.350;17.056;2023-05-18T01:14:15;6.18;;;1.10;;
68432;SDS011;55412;51.350;17.056;2023-05-18T01:26:28;9.20;;;1.38;;
68432;SDS011;55412;51.350;17.056;2023-05-18T01:29:08;10.00;;;1.35;;
68432;SDS011;55412;51.350;17.056;2023-05-18T01:31:37;5.03;;;1.13;;
68432;SDS011;55412;51.350;17.056;2023-05-18T01:34:04;5.65;;;1.25;;
68432;SDS011;55412;51.350;17.056;2023-05-18T01:36:30;8.15;;;1.33;;
68432;SDS011;55412;51.350;17.056;2023-05-18T01:38:58;5.78;;;0.88;;
68432;SDS011;55412;51.350;17.056;2023-05-18T01:41:29;6.80;;;0.90;;
68432;SDS011;55412;51.350;17.056;2023-05-18T01:49:35;7.88;;;1.10;;
68432;SDS011;55412;51.350;17.056;2023-05-18T01:52:22;7.47;;;1.30;;
68432;SDS011;55412;51.350;17.056;2023-05-18T01:55:11;7.22;;;0.88;;
68432;SDS011;55412;51.350;17.056;2023-05-18T01:57:40;6.30;;;1.20;;
68432;SDS011;55412;51.350;17.056;2023-05-18T02:00:09;5.15;;;0.85;;
68432;SDS011;55412;51.350;17.056;2023-05-18T02:02:37;5.97;;;0.93;;
68432;SDS011;55412;51.350;17.056;2023-05-18T02:05:03;6.80;;;1.15;;
68432;SDS011;55412;51.350;17.056;2023-05-18T02:07:31;6.25;;;1.00;;
68432;SDS011;55412;51.350;17.056;2023-05-18T02:09:57;5.00;;;0.93;;
68432;SDS011;55412;51.350;17.056;2023-05-18T02:12:23;5.55;;;0.63;;
68432;SDS011;55412;51.350;17.056;2023-05-18T02:14:49;10.18;;;1.00;;
68432;SDS011;55412;51.350;17.056;2023-05-18T02:17:15;6.32;;;1.02;;
68432;SDS011;55412;51.350;17.056;2023-05-18T02:19:41;8.23;;;1.00;;
68432;SDS011;55412;51.350;17.056;2023-05-18T02:22:07;5.53;;;0.80;;
68432;SDS011;55412;51.350;17.056;2023-05-18T02:24:33;7.60;;;0.85;;
68432;SDS011;55412;51.350;17.056;2023-05-18T02:26:59;5.10;;;0.52;;
68432;SDS011;55412;51.350;17.056;2023-05-18T02:29:26;6.05;;;1.27;;
68432;SDS011;55412;51.350;17.056;2023-05-18T02:31:52;5.10;;;0.90;;
68432;SDS011;55412;51.350;17.056;2023-05-18T02:34:18;10.38;;;1.10;;
68432;SDS011;55412;51.350;17.056;2023-05-18T02:36:46;10.70;;;1.92;;
68432;SDS011;55412;51.350;17.056;2023-05-18T02:39:12;6.15;;;1.23;;
68432;SDS011;55412;51.350;17.056;2023-05-18T02:41:38;5.18;;;1.83;;
68432;SDS011;55412;51.350;17.056;2023-05-18T02:44:04;5.10;;;1.10;;
68432;SDS011;55412;51.350;17.056;2023-05-18T02:46:31;5.72;;;1.02;;
68432;SDS011;55412;51.350;17.056;2023-05-18T02:48:57;7.75;;;1.40;;
68432;SDS011;55412;51.350;17.056;2023-05-18T02:51:23;4.55;;;1.00;;
68432;SDS011;55412;51.350;17.056;2023-05-18T02:53:50;5.63;;;0.70;;
68432;SDS011;55412;51.350;17.056;2023-05-18T02:56:17;7.43;;;0.87;;
68432;SDS011;55412;51.350;17.056;2023-05-18T02:58:43;4.72;;;0.98;;
68432;SDS011;55412;51.350;17.056;2023-05-18T03:01:09;7.95;;;1.65;;
68432;SDS011;55412;51.350;17.056;2023-05-18T03:03:39;5.80;;;1.00;;
68432;SDS011;55412;51.350;17.056;2023-05-18T03:06:06;8.23;;;1.27;;
68432;SDS011;55412;51.350;17.056;2023-05-18T03:08:33;10.67;;;1.00;;
68432;SDS011;55412;51.350;17.056;2023-05-18T03:11:02;6.82;;;1.73;;
68432;SDS011;55412;51.350;17.056;2023-05-18T03:13:28;6.03;;;1.40;;
68432;SDS011;55412;51.350;17.056;2023-05-18T03:15:55;6.78;;;1.15;;
68432;SDS011;55412;51.350;17.056;2023-05-18T03:18:21;5.47;;;1.33;;
68432;SDS011;55412;51.350;17.056;2023-05-18T03:20:49;6.40;;;1.87;;
68432;SDS011;55412;51.350;17.056;2023-05-18T03:23:16;5.97;;;0.90;;
68432;SDS011;55412;51.350;17.056;2023-05-18T03:25:43;5.53;;;1.42;;
68432;SDS011;55412;51.350;17.056;2023-05-18T03:28:09;6.32;;;1.00;;
68432;SDS011;55412;51.350;17.056;2023-05-18T03:30:35;4.45;;;1.02;;
68432;SDS011;55412;51.350;17.056;2023-05-18T03:33:02;6.23;;;0.97;;
68432;SDS011;55412;51.350;17.056;2023-05-18T03:35:28;6.63;;;1.13;;
68432;SDS011;55412;51.350;17.056;2023-05-18T03:37:55;6.95;;;1.20;;
68432;SDS011;55412;51.350;17.056;2023-05-18T03:40:21;9.10;;;1.10;;
68432;SDS011;55412;51.350;17.056;2023-05-18T03:42:48;4.32;;;1.08;;
68432;SDS011;55412;51.350;17.056;2023-05-18T03:45:14;6.00;;;1.53;;
68432;SDS011;55412;51.350;17.056;2023-05-18T03:47:42;8.35;;;1.30;;
68432;SDS011;55412;51.350;17.056;2023-05-18T03:50:08;7.68;;;1.30;;
68432;SDS011;55412;51.350;17.056;2023-05-18T03:52:34;4.57;;;0.88;;
68432;SDS011;55412;51.350;17.056;2023-05-18T03:55:01;8.20;;;1.38;;
68432;SDS011;55412;51.350;17.056;2023-05-18T03:57:29;6.03;;;1.20;;
68432;SDS011;55412;51.350;17.056;2023-05-18T03:59:56;7.97;;;1.63;;
68432;SDS011;55412;51.350;17.056;2023-05-18T04:02:22;7.30;;;1.40;;
68432;SDS011;55412;51.350;17.056;2023-05-18T04:04:49;5.97;;;1.45;;
68432;SDS011;55412;51.350;17.056;2023-05-18T04:07:18;6.72;;;1.80;;
68432;SDS011;55412;51.350;17.056;2023-05-18T04:09:48;9.13;;;1.37;;
68432;SDS011;55412;51.350;17.056;2023-05-18T04:12:16;11.70;;;1.90;;
68432;SDS011;55412;51.350;17.056;2023-05-18T04:14:42;8.60;;;1.75;;
68432;SDS011;55412;51.350;17.056;2023-05-18T04:17:16;6.75;;;1.50;;
68432;SDS011;55412;51.350;17.056;2023-05-18T04:19:46;9.68;;;2.15;;
68432;SDS011;55412;51.350;17.056;2023-05-18T04:22:16;7.13;;;2.30;;
68432;SDS011;55412;51.350;17.056;2023-05-18T04:24:42;15.13;;;4.10;;
68432;SDS011;55412;51.350;17.056;2023-05-18T04:27:11;14.02;;;3.17;;
68432;SDS011;55412;51.350;17.056;2023-05-18T04:29:38;18.65;;;4.25;;
68432;SDS011;55412;51.350;17.056;2023-05-18T04:32:08;14.65;;;4.10;;
68432;SDS011;55412;51.350;17.056;2023-05-18T04:34:34;15.43;;;3.47;;
68432;SDS011;55412;51.350;17.056;2023-05-18T04:37:04;14.40;;;4.63;;
68432;SDS011;55412;51.350;17.056;2023-05-18T04:39:31;27.80;;;6.93;;
68432;SDS011;55412;51.350;17.056;2023-05-18T04:41:59;23.45;;;6.22;;
68432;SDS011;55412;51.350;17.056;2023-05-18T04:44:25;13.23;;;3.38;;
68432;SDS011;55412;51.350;17.056;2023-05-18T04:46:53;9.10;;;2.77;;
68432;SDS011;55412;51.350;17.056;2023-05-18T04:49:20;16.13;;;4.18;;
68432;SDS011;55412;51.350;17.056;2023-05-18T04:51:51;10.95;;;3.17;;
68432;SDS011;55412;51.350;17.056;2023-05-18T04:54:26;22.02;;;6.03;;
68432;SDS011;55412;51.350;17.056;2023-05-18T04:56:57;13.48;;;3.13;;
68432;SDS011;55412;51.350;17.056;2023-05-18T04:59:23;22.13;;;5.27;;
68432;SDS011;55412;51.350;17.056;2023-05-18T05:01:54;14.43;;;4.95;;
68432;SDS011;55412;51.350;17.056;2023-05-18T05:04:20;9.23;;;2.70;;
68432;SDS011;55412;51.350;17.056;2023-05-18T05:06:47;32.03;;;14.05;;
68432;SDS011;55412;51.350;17.056;2023-05-18T05:09:14;18.85;;;7.70;;
68432;SDS011;55412;51.350;17.056;2023-05-18T05:11:40;14.57;;;2.73;;
68432;SDS011;55412;51.350;17.056;2023-05-18T05:14:06;8.10;;;2.80;;
68432;SDS011;55412;51.350;17.056;2023-05-18T05:16:33;10.88;;;2.45;;
68432;SDS011;55412;51.350;17.056;2023-05-18T05:19:00;13.45;;;4.68;;
68432;SDS011;55412;51.350;17.056;2023-05-18T05:21:26;8.48;;;3.10;;
68432;SDS011;55412;51.350;17.056;2023-05-18T05:23:53;13.77;;;5.77;;
68432;SDS011;55412;51.350;17.056;2023-05-18T05:26:19;8.68;;;2.75;;
68432;SDS011;55412;51.350;17.056;2023-05-18T05:28:47;9.18;;;2.63;;
68432;SDS011;55412;51.350;17.056;2023-05-18T05:31:14;9.65;;;2.95;;
68432;SDS011;55412;51.350;17.056;2023-05-18T05:33:40;13.43;;;9.32;;
68432;SDS011;55412;51.350;17.056;2023-05-18T05:36:06;22.67;;;10.17;;
68432;SDS011;55412;51.350;17.056;2023-05-18T05:38:33;44.90;;;17.80;;
68432;SDS011;55412;51.350;17.056;2023-05-18T05:41:00;15.93;;;6.03;;
68432;SDS011;55412;51.350;17.056;2023-05-18T05:43:26;9.02;;;3.08;;
68432;SDS011;55412;51.350;17.056;2023-05-18T05:45:52;6.90;;;1.65;;
68432;SDS011;55412;51.350;17.056;2023-05-18T05:48:19;6.73;;;1.17;;
68432;SDS011;55412;51.350;17.056;2023-05-18T05:50:45;8.50;;;2.10;;
68432;SDS011;55412;51.350;17.056;2023-05-18T05:53:11;5.32;;;1.20;;
68432;SDS011;55412;51.350;17.056;2023-05-18T05:55:41;4.82;;;1.05;;
68432;SDS011;55412;51.350;17.056;2023-05-18T05:58:07;6.30;;;1.48;;
68432;SDS011;55412;51.350;17.056;2023-05-18T06:00:33;12.53;;;3.20;;
68432;SDS011;55412;51.350;17.056;2023-05-18T06:03:00;5.47;;;1.40;;
68432;SDS011;55412;51.350;17.056;2023-05-18T06:05:27;8.65;;;1.55;;
68432;SDS011;55412;51.350;17.056;2023-05-18T06:07:52;7.18;;;1.38;;
68432;SDS011;55412;51.350;17.056;2023-05-18T06:10:19;5.60;;;1.60;;
68432;SDS011;55412;51.350;17.056;2023-05-18T06:12:45;9.97;;;1.87;;
68432;SDS011;55412;51.350;17.056;2023-05-18T06:15:11;6.65;;;1.35;;
68432;SDS011;55412;51.350;17.056;2023-05-18T06:17:38;6.32;;;1.60;;
68432;SDS011;55412;51.350;17.056;2023-05-18T06:20:04;8.45;;;2.03;;
68432;SDS011;55412;51.350;17.056;2023-05-18T06:22:31;7.53;;;1.92;;
68432;SDS011;55412;51.350;17.056;2023-05-18T06:24:57;6.77;;;1.30;;
68432;SDS011;55412;51.350;17.056;2023-05-18T06:27:23;8.05;;;1.90;;
68432;SDS011;55412;51.350;17.056;2023-05-18T06:29:49;9.40;;;1.60;;
68432;SDS011;55412;51.350;17.056;2023-05-18T06:32:17;8.25;;;2.45;;
68432;SDS011;55412;51.350;17.056;2023-05-18T06:34:43;7.47;;;1.48;;
68432;SDS011;55412;51.350;17.056;2023-05-18T06:37:10;9.57;;;1.63;;
68432;SDS011;55412;51.350;17.056;2023-05-18T06:39:36;8.05;;;1.70;;
68432;SDS011;55412;51.350;17.056;2023-05-18T06:42:03;7.70;;;1.58;;
68432;SDS011;55412;51.350;17.056;2023-05-18T06:44:29;10.55;;;1.70;;
68432;SDS011;55412;51.350;17.056;2023-05-18T06:46:55;7.32;;;1.60;;
68432;SDS011;55412;51.350;17.056;2023-05-18T06:49:21;6.50;;;1.70;;
68432;SDS011;55412;51.350;17.056;2023-05-18T06:51:47;6.38;;;1.17;;
68432;SDS011;55412;51.350;17.056;2023-05-18T06:54:13;7.22;;;1.15;;
68432;SDS011;55412;51.350;17.056;2023-05-18T06:56:40;4.22;;;1.23;;
68432;SDS011;55412;51.350;17.056;2023-05-18T06:59:07;8.75;;;1.55;;
68432;SDS011;55412;51.350;17.056;2023-05-18T07:01:33;4.50;;;1.10;;
68432;SDS011;55412;51.350;17.056;2023-05-18T07:03:59;6.70;;;1.48;;
68432;SDS011;55412;51.350;17.056;2023-05-18T07:06:26;6.65;;;1.10;;
68432;SDS011;55412;51.350;17.056;2023-05-18T07:08:52;7.75;;;1.20;;
68432;SDS011;55412;51.350;17.056;2023-05-18T07:11:18;5.63;;;1.10;;
68432;SDS011;55412;51.350;17.056;2023-05-18T07:13:45;7.50;;;1.30;;
68432;SDS011;55412;51.350;17.056;2023-05-18T07:16:10;8.55;;;1.00;;
68432;SDS011;55412;51.350;17.056;2023-05-18T07:18:37;10.60;;;0.98;;
68432;SDS011;55412;51.350;17.056;2023-05-18T07:21:03;12.35;;;1.33;;
68432;SDS011;55412;51.350;17.056;2023-05-18T07:23:29;6.53;;;0.80;;
68432;SDS011;55412;51.350;17.056;2023-05-18T07:25:56;8.73;;;1.27;;
68432;SDS011;55412;51.350;17.056;2023-05-18T07:28:22;11.98;;;2.10;;
68432;SDS011;55412;51.350;17.056;2023-05-18T07:30:48;6.95;;;0.90;;
68432;SDS011;55412;51.350;17.056;2023-05-18T07:33:14;8.63;;;1.20;;
68432;SDS011;55412;51.350;17.056;2023-05-18T07:35:40;4.43;;;1.00;;
68432;SDS011;55412;51.350;17.056;2023-05-18T07:38:06;12.63;;;1.38;;
68432;SDS011;55412;51.350;17.056;2023-05-18T07:40:32;6.50;;;1.25;;
68432;SDS011;55412;51.350;17.056;2023-05-18T07:42:58;9.38;;;1.20;;
68432;SDS011;55412;51.350;17.056;2023-05-18T07:45:24;12.50;;;1.90;;
68432;SDS011;55412;51.350;17.056;2023-05-18T07:47:50;6.43;;;1.73;;
68432;SDS011;55412;51.350;17.056;2023-05-18T07:50:16;6.68;;;0.93;;
68432;SDS011;55412;51.350;17.056;2023-05-18T07:52:43;5.57;;;0.80;;
68432;SDS011;55412;51.350;17.056;2023-05-18T07:55:09;9.45;;;0.80;;
68432;SDS011;55412;51.350;17.056;2023-05-18T07:57:35;7.38;;;1.40;;
68432;SDS011;55412;51.350;17.056;2023-05-18T08:00:02;4.27;;;0.53;;
68432;SDS011;55412;51.350;17.056;2023-05-18T08:02:30;4.57;;;0.75;;
68432;SDS011;55412;51.350;17.056;2023-05-18T08:04:56;8.77;;;1.08;;
68432;SDS011;55412;51.350;17.056;2023-05-18T08:07:22;8.18;;;1.35;;
68432;SDS011;55412;51.350;17.056;2023-05-18T08:09:50;10.90;;;1.30;;
68432;SDS011;55412;51.350;17.056;2023-05-18T08:12:16;5.10;;;0.47;;
68432;SDS011;55412;51.350;17.056;2023-05-18T08:14:42;7.07;;;1.05;;
68432;SDS011;55412;51.350;17.056;2023-05-18T08:17:08;7.70;;;1.17;;
68432;SDS011;55412;51.350;17.056;2023-05-18T08:19:34;7.85;;;1.10;;
68432;SDS011;55412;51.350;17.056;2023-05-18T08:22:01;4.57;;;1.30;;
68432;SDS011;55412;51.350;17.056;2023-05-18T08:24:27;8.87;;;0.77;;
68432;SDS011;55412;51.350;17.056;2023-05-18T08:26:53;8.90;;;0.63;;
68432;SDS011;55412;51.350;17.056;2023-05-18T08:29:19;12.43;;;1.85;;
68432;SDS011;55412;51.350;17.056;2023-05-18T08:31:45;6.63;;;1.00;;
68432;SDS011;55412;51.350;17.056;2023-05-18T08:34:11;12.63;;;1.20;;
68432;SDS011;55412;51.350;17.056;2023-05-18T08:36:37;5.33;;;1.20;;
68432;SDS011;55412;51.350;17.056;2023-05-18T08:39:04;9.43;;;1.40;;
68432;SDS011;55412;51.350;17.056;2023-05-18T08:41:31;8.90;;;0.90;;
68432;SDS011;55412;51.350;17.056;2023-05-18T08:44:12;13.50;;;1.55;;
68432;SDS011;55412;51.350;17.056;2023-05-18T08:46:45;13.90;;;1.25;;
68432;SDS011;55412;51.350;17.056;2023-05-18T08:49:19;9.53;;;0.90;;
68432;SDS011;55412;51.350;17.056;2023-05-18T08:51:47;14.13;;;2.10;;
68432;SDS011;55412;51.350;17.056;2023-05-18T08:54:27;8.18;;;0.70;;
68432;SDS011;55412;51.350;17.056;2023-05-18T08:56:56;5.45;;;1.15;;
68432;SDS011;55412;51.350;17.056;2023-05-18T08:59:24;6.07;;;1.00;;
68432;SDS011;55412;51.350;17.056;2023-05-18T09:01:55;10.70;;;1.00;;
68432;SDS011;55412;51.350;17.056;2023-05-18T09:04:22;4.32;;;0.98;;
68432;SDS011;55412;51.350;17.056;2023-05-18T09:06:48;6.75;;;1.13;;
68432;SDS011;55412;51.350;17.056;2023-05-18T09:09:18;6.68;;;1.20;;
68432;SDS011;55412;51.350;17.056;2023-05-18T09:11:46;11.40;;;1.30;;
68432;SDS011;55412;51.350;17.056;2023-05-18T09:14:12;4.57;;;1.00;;
68432;SDS011;55412;51.350;17.056;2023-05-18T09:16:38;5.60;;;1.30;;
68432;SDS011;55412;51.350;17.056;2023-05-18T09:19:05;3.83;;;0.70;;
68432;SDS011;55412;51.350;17.056;2023-05-18T09:21:31;3.72;;;0.70;;
68432;SDS011;55412;51.350;17.056;2023-05-18T09:24:00;4.97;;;0.77;;
68432;SDS011;55412;51.350;17.056;2023-05-18T09:26:26;2.83;;;0.70;;
68432;SDS011;55412;51.350;17.056;2023-05-18T09:28:52;4.97;;;0.63;;
68432;SDS011;55412;51.350;17.056;2023-05-18T09:31:19;5.88;;;1.52;;
68432;SDS011;55412;51.350;17.056;2023-05-18T09:33:48;3.80;;;0.95;;
68432;SDS011;55412;51.350;17.056;2023-05-18T09:36:15;3.47;;;0.75;;
68432;SDS011;55412;51.350;17.056;2023-05-18T09:38:43;2.60;;;0.70;;
68432;SDS011;55412;51.350;17.056;2023-05-18T09:41:15;4.85;;;0.82;;
68432;SDS011;55412;51.350;17.056;2023-05-18T09:43:42;7.10;;;0.50;;
68432;SDS011;55412;51.350;17.056;2023-05-18T09:46:10;5.15;;;0.82;;
68432;SDS011;55412;51.350;17.056;2023-05-18T09:48:41;3.72;;;0.52;;
68432;SDS011;55412;51.350;17.056;2023-05-18T09:51:11;9.03;;;1.03;;
68432;SDS011;55412;51.350;17.056;2023-05-18T09:53:41;6.07;;;0.60;;
68432;SDS011;55412;51.350;17.056;2023-05-18T09:56:11;2.95;;;0.70;;
68432;SDS011;55412;51.350;17.056;2023-05-18T09:58:39;6.78;;;0.73;;
68432;SDS011;55412;51.350;17.056;2023-05-18T10:01:05;4.75;;;0.80;;
68432;SDS011;55412;51.350;17.056;2023-05-18T10:03:35;3.83;;;0.80;;
68432;SDS011;55412;51.350;17.056;2023-05-18T10:06:09;3.10;;;0.70;;
68432;SDS011;55412;51.350;17.056;2023-05-18T10:08:41;3.80;;;0.77;;
68432;SDS011;55412;51.350;17.056;2023-05-18T10:11:08;3.63;;;1.00;;
68432;SDS011;55412;51.350;17.056;2023-05-18T10:13:36;5.63;;;0.63;;
68432;SDS011;55412;51.350;17.056;2023-05-18T10:16:02;5.83;;;0.90;;
68432;SDS011;55412;51.350;17.056;2023-05-18T10:18:35;3.97;;;0.80;;
68432;SDS011;55412;51.350;17.056;2023-05-18T10:21:03;3.20;;;0.50;;
68432;SDS011;55412;51.350;17.056;2023-05-18T10:23:32;3.97;;;0.70;;
68432;SDS011;55412;51.350;17.056;2023-05-18T10:26:00;3.17;;;0.63;;
68432;SDS011;55412;51.350;17.056;2023-05-18T10:28:40;4.20;;;0.67;;
68432;SDS011;55412;51.350;17.056;2023-05-18T10:31:09;3.58;;;0.50;;
68432;SDS011;55412;51.350;17.056;2023-05-18T10:33:35;5.72;;;0.73;;
68432;SDS011;55412;51.350;17.056;2023-05-18T10:36:03;5.30;;;0.70;;
68432;SDS011;55412;51.350;17.056;2023-05-18T10:38:30;2.30;;;0.40;;
68432;SDS011;55412;51.350;17.056;2023-05-18T10:40:58;4.80;;;0.73;;
68432;SDS011;55412;51.350;17.056;2023-05-18T10:43:25;3.00;;;0.80;;
68432;SDS011;55412;51.350;17.056;2023-05-18T10:48:23;3.35;;;0.60;;
68432;SDS011;55412;51.350;17.056;2023-05-18T10:50:51;4.82;;;0.60;;
68432;SDS011;55412;51.350;17.056;2023-05-18T10:53:21;2.60;;;0.57;;
68432;SDS011;55412;51.350;17.056;2023-05-18T10:55:50;3.63;;;0.63;;
68432;SDS011;55412;51.350;17.056;2023-05-18T10:58:19;3.58;;;0.70;;
68432;SDS011;55412;51.350;17.056;2023-05-18T11:00:55;3.05;;;0.50;;
68432;SDS011;55412;51.350;17.056;2023-05-18T11:03:24;3.10;;;0.70;;
68432;SDS011;55412;51.350;17.056;2023-05-18T11:08:42;3.15;;;0.63;;
68432;SDS011;55412;51.350;17.056;2023-05-18T11:11:13;4.72;;;0.70;;
68432;SDS011;55412;51.350;17.056;2023-05-18T11:13:49;6.45;;;0.65;;
68432;SDS011;55412;51.350;17.056;2023-05-18T11:16:16;3.53;;;0.55;;
68432;SDS011;55412;51.350;17.056;2023-05-18T11:18:47;2.50;;;0.50;;
68432;SDS011;55412;51.350;17.056;2023-05-18T11:27:01;3.22;;;0.57;;
68432;SDS011;55412;51.350;17.056;2023-05-18T11:29:48;2.75;;;0.45;;
68432;SDS011;55412;51.350;17.056;2023-05-18T11:32:25;2.63;;;0.30;;
68432;SDS011;55412;51.350;17.056;2023-05-18T11:34:54;2.80;;;0.60;;
68432;SDS011;55412;51.350;17.056;2023-05-18T11:40:11;3.95;;;0.73;;
68432;SDS011;55412;51.350;17.056;2023-05-18T11:43:18;3.63;;;0.57;;
68432;SDS011;55412;51.350;17.056;2023-05-18T11:45:52;2.37;;;0.30;;
68432;SDS011;55412;51.350;17.056;2023-05-18T11:48:23;3.45;;;0.35;;
68432;SDS011;55412;51.350;17.056;2023-05-18T11:50:54;2.97;;;0.40;;
68432;SDS011;55412;51.350;17.056;2023-05-18T11:53:24;3.88;;;0.50;;
68432;SDS011;55412;51.350;17.056;2023-05-18T11:55:51;5.13;;;0.80;;
68432;SDS011;55412;51.350;17.056;2023-05-18T11:58:19;3.77;;;0.70;;
68432;SDS011;55412;51.350;17.056;2023-05-18T12:00:47;5.78;;;0.90;;
68432;SDS011;55412;51.350;17.056;2023-05-18T12:03:13;4.57;;;0.43;;
68432;SDS011;55412;51.350;17.056;2023-05-18T12:05:41;2.50;;;0.30;;
68432;SDS011;55412;51.350;17.056;2023-05-18T12:08:17;5.50;;;0.57;;
68432;SDS011;55412;51.350;17.056;2023-05-18T12:10:47;4.10;;;0.70;;
68432;SDS011;55412;51.350;17.056;2023-05-18T12:13:14;2.92;;;0.50;;
68432;SDS011;55412;51.350;17.056;2023-05-18T12:15:42;4.35;;;0.60;;
68432;SDS011;55412;51.350;17.056;2023-05-18T12:18:09;3.67;;;0.73;;
68432;SDS011;55412;51.350;17.056;2023-05-18T12:20:37;2.55;;;0.65;;
68432;SDS011;55412;51.350;17.056;2023-05-18T12:23:05;3.07;;;0.70;;
68432;SDS011;55412;51.350;17.056;2023-05-18T12:25:31;3.67;;;0.57;;
68432;SDS011;55412;51.350;17.056;2023-05-18T12:27:57;3.53;;;0.40;;
68432;SDS011;55412;51.350;17.056;2023-05-18T12:30:26;3.88;;;0.77;;
68432;SDS011;55412;51.350;17.056;2023-05-18T12:32:59;3.97;;;0.70;;
68432;SDS011;55412;51.350;17.056;2023-05-18T12:35:28;3.00;;;0.70;;
68432;SDS011;55412;51.350;17.056;2023-05-18T12:37:56;3.70;;;0.50;;
68432;SDS011;55412;51.350;17.056;2023-05-18T12:40:26;5.25;;;0.70;;
68432;SDS011;55412;51.350;17.056;2023-05-18T12:43:08;3.30;;;0.57;;
68432;SDS011;55412;51.350;17.056;2023-05-18T12:45:34;3.75;;;0.50;;
68432;SDS011;55412;51.350;17.056;2023-05-18T12:48:07;4.60;;;0.83;;
68432;SDS011;55412;51.350;17.056;2023-05-18T12:50:35;2.75;;;0.60;;
68432;SDS011;55412;51.350;17.056;2023-05-18T12:53:14;3.13;;;0.40;;
68432;SDS011;55412;51.350;17.056;2023-05-18T12:55:41;3.28;;;0.60;;
68432;SDS011;55412;51.350;17.056;2023-05-18T12:58:11;6.17;;;0.60;;
68432;SDS011;55412;51.350;17.056;2023-05-18T13:00:42;3.67;;;0.57;;
68432;SDS011;55412;51.350;17.056;2023-05-18T13:03:10;3.38;;;0.70;;
68432;SDS011;55412;51.350;17.056;2023-05-18T13:05:39;3.45;;;0.40;;
68432;SDS011;55412;51.350;17.056;2023-05-18T13:08:08;2.65;;;0.63;;
68432;SDS011;55412;51.350;17.056;2023-05-18T13:10:41;4.03;;;0.70;;
68432;SDS011;55412;51.350;17.056;2023-05-18T13:13:09;3.73;;;0.67;;
68432;SDS011;55412;51.350;17.056;2023-05-18T13:15:38;3.85;;;0.52;;
68432;SDS011;55412;51.350;17.056;2023-05-18T13:18:06;3.60;;;0.40;;
68432;SDS011;55412;51.350;17.056;2023-05-18T13:20:38;5.00;;;0.65;;
68432;SDS011;55412;51.350;17.056;2023-05-18T13:23:08;10.18;;;1.48;;
68432;SDS011;55412;51.350;17.056;2023-05-18T13:25:37;2.60;;;0.70;;
68432;SDS011;55412;51.350;17.056;2023-05-18T13:28:08;5.57;;;0.95;;
68432;SDS011;55412;51.350;17.056;2023-05-18T13:30:37;5.82;;;0.75;;
68432;SDS011;55412;51.350;17.056;2023-05-18T13:33:06;3.78;;;0.60;;
68432;SDS011;55412;51.350;17.056;2023-05-18T13:35:33;3.22;;;0.30;;
68432;SDS011;55412;51.350;17.056;2023-05-18T13:38:04;4.17;;;0.90;;
68432;SDS011;55412;51.350;17.056;2023-05-18T13:40:30;8.07;;;0.98;;
68432;SDS011;55412;51.350;17.056;2023-05-18T13:42:56;2.13;;;0.38;;
68432;SDS011;55412;51.350;17.056;2023-05-18T13:45:23;3.40;;;0.55;;
68432;SDS011;55412;51.350;17.056;2023-05-18T13:47:49;1.88;;;0.30;;
68432;SDS011;55412;51.350;17.056;2023-05-18T13:50:17;2.70;;;0.40;;
68432;SDS011;55412;51.350;17.056;2023-05-18T13:52:45;1.88;;;0.20;;
68432;SDS011;55412;51.350;17.056;2023-05-18T13:55:11;4.70;;;0.50;;
68432;SDS011;55412;51.350;17.056;2023-05-18T13:57:38;2.38;;;0.30;;
68432;SDS011;55412;51.350;17.056;2023-05-18T14:00:04;2.92;;;0.50;;
68432;SDS011;55412;51.350;17.056;2023-05-18T14:02:40;6.77;;;0.60;;
68432;SDS011;55412;51.350;17.056;2023-05-18T14:05:08;3.45;;;0.30;;
68432;SDS011;55412;51.350;17.056;2023-05-18T14:07:35;4.25;;;0.70;;
68432;SDS011;55412;51.350;17.056;2023-05-18T14:10:03;4.07;;;0.50;;
68432;SDS011;55412;51.350;17.056;2023-05-18T14:12:30;5.10;;;0.60;;
68432;SDS011;55412;51.350;17.056;2023-05-18T14:14:56;4.10;;;0.90;;
68432;SDS011;55412;51.350;17.056;2023-05-18T14:17:23;5.72;;;0.70;;
68432;SDS011;55412;51.350;17.056;2023-05-18T14:19:51;4.85;;;0.20;;
68432;SDS011;55412;51.350;17.056;2023-05-18T14:22:17;2.78;;;0.50;;
68432;SDS011;55412;51.350;17.056;2023-05-18T14:24:46;3.58;;;0.70;;
68432;SDS011;55412;51.350;17.056;2023-05-18T14:27:12;2.90;;;0.50;;
68432;SDS011;55412;51.350;17.056;2023-05-18T14:29:39;2.78;;;0.40;;
68432;SDS011;55412;51.350;17.056;2023-05-18T14:32:05;4.45;;;0.95;;
68432;SDS011;55412;51.350;17.056;2023-05-18T14:34:32;3.20;;;0.70;;
68432;SDS011;55412;51.350;17.056;2023-05-18T14:36:58;2.30;;;0.40;;
68432;SDS011;55412;51.350;17.056;2023-05-18T14:39:24;3.27;;;0.57;;
68432;SDS011;55412;51.350;17.056;2023-05-18T14:41:50;2.45;;;0.40;;
68432;SDS011;55412;51.350;17.056;2023-05-18T14:44:16;2.15;;;0.20;;
68432;SDS011;55412;51.350;17.056;2023-05-18T14:46:43;3.13;;;0.65;;
68432;SDS011;55412;51.350;17.056;2023-05-18T14:49:09;3.45;;;0.65;;
68432;SDS011;55412;51.350;17.056;2023-05-18T14:51:35;2.37;;;0.40;;
68432;SDS011;55412;51.350;17.056;2023-05-18T14:54:02;1.60;;;0.22;;
68432;SDS011;55412;51.350;17.056;2023-05-18T14:56:28;2.83;;;0.50;;
68432;SDS011;55412;51.350;17.056;2023-05-18T14:58:54;3.08;;;0.73;;
68432;SDS011;55412;51.350;17.056;2023-05-18T15:01:20;3.00;;;0.50;;
68432;SDS011;55412;51.350;17.056;2023-05-18T15:03:46;2.37;;;0.47;;
68432;SDS011;55412;51.350;17.056;2023-05-18T15:06:12;2.58;;;0.55;;